ENRA Airport Information

Runway Information
Runway 13 Length 2759 ft width 98 ft
Elevation 226 ft Threshold ft Heading 136
Runway 31 Length 2759 ft Width 98 ft
Elevation 220 ft Threshold ft Heading 316
Airport Frequencies
Airport Navaids
Type NDB Name Strommen Frequency 345 KHZ
Airport Weather Information & NOTAM
ADDS - METARS form results

(1439 UTC 14 August 2022)
Data provider http://aviationweather.gov/metar/data/
 
METAR text: ENRA 141420Z 31004KT CAVOK 19/09 Q1016
Conditions at: ENRA (MOIRANA , NO) observed 1420 UTC 14 August 2022
Temperature: 19.0°C (66°F)
Dewpoint: 9.0°C (48°F) [RH = 52%]
Pressure (altimeter): 30.00 inches Hg (1016.0 mb)
Winds: from the NW (310 degrees) at 5 MPH (4 knots; 2.1 m/s)
Visibility: 6 or more miles (10+ km)
Ceiling: ceiling and visibility are OK
Clouds: unknown
Weather: no significant weather observed at this time

METAR text: ENRA 141350Z 31004KT 280V350 9999 FEW047 SCT072 19/09 Q1016
Conditions at: ENRA (MOIRANA , NO) observed 1350 UTC 14 August 2022
Temperature: 19.0°C (66°F)
Dewpoint: 9.0°C (48°F) [RH = 52%]
Pressure (altimeter): 30.00 inches Hg (1016.0 mb)
Winds: from the NW (310 degrees) at 5 MPH (4 knots; 2.1 m/s)
Visibility: 6 or more miles (10+ km)
Ceiling: at least 12,000 feet AGL
Clouds: few clouds at 4700 feet AGL
scattered clouds at 7200 feet AGL
Weather: no significant weather observed at this time

Forecast for: ENRA (MOIRANA , NO)
Text: TAF ENRA 141400Z 1415/1421 34005KT 9999 SCT050
Forecast period: 1500 to 2100 UTC 14 August 2022
Forecast type: FROM: standard forecast or significant change
Winds: from the NNW (340 degrees) at 6 MPH (5 knots; 2.6 m/s)
Visibility: 6 or more miles (10+ km)
Ceiling: at least 12,000 feet AGL
Clouds: scattered clouds at 5000 feet AGL
Weather: no significant weather forecast for this period